Time;durP1;ratioP1;P1;durP2;ratioP2;P2;SDS_P1;SDS_P2;PMS_P1;PMS_P2;Temp;Humidity;BMP_temperature;BMP_pressure;BME280_temperature;BME280_humidity;BME280_pressure;Samples;Min_cycle;Max_cycle;Signal;HPM_P1;HPM_P2
2023/09/15 00:01:41;;;;;;;3.57;3.27;;;24.40;50.10;;;;;;5011520;28;20441;-44
2023/09/15 00:04:09;;;;;;;3.80;3.50;;;24.40;50.10;;;;;;5011797;28;20449;-47
2023/09/15 00:06:35;;;;;;;3.57;3.13;;;24.40;50.40;;;;;;5011263;28;20449;-44
2023/09/15 00:09:06;;;;;;;4.43;3.33;;;24.40;50.20;;;;;;5012974;28;20444;-44
2023/09/15 00:11:42;;;;;;;3.67;3.37;;;24.30;50.20;;;;;;5007183;28;20473;-45
2023/09/15 00:14:09;;;;;;;3.00;2.70;;;24.30;50.40;;;;;;5012109;28;20451;-45
2023/09/15 00:16:35;;;;;;;4.30;3.13;;;24.30;49.50;;;;;;5009667;28;20480;-45
2023/09/15 00:19:03;;;;;;;3.40;3.10;;;24.30;49.40;;;;;;5005291;28;20983;-46
2023/09/15 00:21:28;;;;;;;4.17;3.33;;;24.20;50.00;;;;;;5002323;28;20544;-45
2023/09/15 00:23:54;;;;;;;3.20;2.90;;;24.20;50.10;;;;;;5005099;28;20659;-45
2023/09/15 00:26:23;;;;;;;4.13;3.80;;;24.20;50.50;;;;;;5008726;28;20194;-46
2023/09/15 00:28:49;;;;;;;3.57;3.27;;;24.20;50.60;;;;;;5008243;28;20197;-46
2023/09/15 00:31:15;;;;;;;3.90;2.97;;;24.20;50.40;;;;;;5008937;28;20429;-45
2023/09/15 00:33:40;;;;;;;3.10;2.80;;;24.10;50.70;;;;;;5013574;28;20428;-46
2023/09/15 00:36:06;;;;;;;4.13;3.70;;;24.10;51.30;;;;;;5007169;28;20560;-47
2023/09/15 00:38:32;;;;;;;6.13;3.13;;;24.10;50.70;;;;;;5012752;28;20224;-44
2023/09/15 00:40:58;;;;;;;3.87;2.63;;;24.10;50.60;;;;;;5013178;28;20244;-45
2023/09/15 00:43:23;;;;;;;3.17;2.90;;;24.00;50.20;;;;;;5009283;28;20516;-49
2023/09/15 00:45:49;;;;;;;3.43;3.13;;;24.10;50.30;;;;;;5010601;28;20285;-45
2023/09/15 00:48:17;;;;;;;3.20;2.90;;;24.10;50.00;;;;;;5001498;28;20194;-47
2023/09/15 00:50:43;;;;;;;2.90;2.70;;;24.10;50.20;;;;;;5009235;28;20321;-46
2023/09/15 00:53:19;;;;;;;3.03;2.77;;;24.00;50.10;;;;;;5007527;28;20584;-45
2023/09/15 00:55:47;;;;;;;3.37;3.07;;;24.00;50.10;;;;;;5010386;28;20196;-44
2023/09/15 00:58:16;;;;;;;3.43;3.13;;;24.00;49.80;;;;;;5003697;28;20456;-45
2023/09/15 01:00:43;;;;;;;2.77;2.57;;;24.00;49.60;;;;;;5009638;28;20440;-44
2023/09/15 01:03:10;;;;;;;3.23;3.00;;;23.90;50.50;;;;;;5002902;28;20504;-45
2023/09/15 01:05:38;;;;;;;2.90;2.70;;;24.00;50.40;;;;;;5005110;28;20457;-47
2023/09/15 01:08:04;;;;;;;3.57;3.03;;;23.90;50.30;;;;;;5005752;28;21027;-44
2023/09/15 01:10:30;;;;;;;3.70;3.40;;;23.90;50.10;;;;;;5000630;28;20459;-45
2023/09/15 01:12:57;;;;;;;3.00;2.70;;;24.00;49.90;;;;;;4999966;28;20635;-45
2023/09/15 01:15:34;;;;;;;4.40;2.80;;;24.00;50.00;;;;;;5001390;28;20441;-44
2023/09/15 01:18:26;;;;;;;3.30;3.00;;;23.90;50.20;;;;;;5006157;28;22913;-45
2023/09/15 01:21:10;;;;;;;2.83;2.63;;;24.00;50.00;;;;;;5007744;28;20453;-45
2023/09/15 01:23:53;;;;;;;3.13;2.80;;;23.90;50.00;;;;;;5005458;28;20463;-45
2023/09/15 01:26:40;;;;;;;3.00;2.80;;;23.90;49.90;;;;;;5006681;28;20782;-45
2023/09/15 01:29:44;;;;;;;3.70;3.40;;;23.90;50.00;;;;;;5009809;28;20531;-47
2023/09/15 01:32:12;;;;;;;3.93;3.10;;;23.90;49.60;;;;;;5000050;28;20484;-44
2023/09/15 01:34:38;;;;;;;3.00;2.70;;;23.80;49.90;;;;;;5008915;28;20448;-45
2023/09/15 01:37:04;;;;;;;3.93;3.40;;;23.80;50.00;;;;;;5010945;28;20955;-46
2023/09/15 01:39:30;;;;;;;3.60;3.30;;;23.80;50.10;;;;;;5007909;28;20437;-44
2023/09/15 01:41:59;;;;;;;2.90;2.70;;;23.80;50.20;;;;;;5007896;28;20959;-46
2023/09/15 01:44:25;;;;;;;3.13;2.83;;;23.80;50.30;;;;;;5006942;28;20487;-45
2023/09/15 01:46:50;;;;;;;5.30;3.40;;;23.80;50.40;;;;;;5011101;28;20453;-45
2023/09/15 01:49:18;;;;;;;3.20;3.00;;;23.70;49.80;;;;;;5015498;28;20223;-46
2023/09/15 01:51:44;;;;;;;4.00;3.70;;;23.80;49.30;;;;;;5014248;28;20267;-46
2023/09/15 01:54:10;;;;;;;3.90;3.60;;;23.80;49.30;;;;;;5010594;28;20479;-45
2023/09/15 01:56:36;;;;;;;3.67;3.37;;;23.70;49.20;;;;;;5013648;28;20502;-45
2023/09/15 01:59:02;;;;;;;4.13;3.83;;;23.60;49.30;;;;;;5014965;28;20437;-45
2023/09/15 02:01:27;;;;;;;3.13;2.83;;;23.50;49.50;;;;;;5016006;28;20282;-44
2023/09/15 02:03:53;;;;;;;3.20;3.00;;;23.50;49.60;;;;;;5009693;28;20202;-44
2023/09/15 02:06:18;;;;;;;3.90;3.50;;;23.50;50.40;;;;;;5014291;28;20225;-45
2023/09/15 02:08:47;;;;;;;4.20;3.80;;;23.40;50.60;;;;;;5012567;28;20197;-45
2023/09/15 02:11:13;;;;;;;3.60;2.93;;;23.50;50.40;;;;;;5014019;28;20817;-44
2023/09/15 02:13:43;;;;;;;3.63;3.33;;;23.50;50.30;;;;;;5014099;28;20484;-45
2023/09/15 02:16:08;;;;;;;4.40;3.40;;;23.40;50.50;;;;;;5013189;28;20197;-44
2023/09/15 02:18:34;;;;;;;2.90;2.70;;;23.50;50.90;;;;;;5013902;28;20445;-45
2023/09/15 02:21:03;;;;;;;3.50;3.10;;;23.50;50.70;;;;;;5006298;28;20670;-44
2023/09/15 02:23:29;;;;;;;3.27;2.97;;;23.50;50.60;;;;;;5004235;28;20517;-44
2023/09/15 02:25:55;;;;;;;3.60;2.73;;;23.50;50.60;;;;;;5002366;28;20518;-44
2023/09/15 02:28:21;;;;;;;4.67;3.70;;;23.50;51.40;;;;;;5007737;28;20464;-44
2023/09/15 02:30:47;;;;;;;3.07;2.80;;;23.60;50.80;;;;;;5010274;28;20198;-45
2023/09/15 02:33:13;;;;;;;3.30;3.00;;;23.60;50.50;;;;;;5002441;28;20222;-45
2023/09/15 02:35:39;;;;;;;3.33;3.07;;;23.50;50.40;;;;;;5001770;28;20818;-46
2023/09/15 02:38:06;;;;;;;4.70;3.87;;;23.50;50.50;;;;;;5004964;28;20440;-46
2023/09/15 02:40:31;;;;;;;3.33;3.03;;;23.40;50.40;;;;;;5006635;28;20198;-44
2023/09/15 02:42:57;;;;;;;4.30;3.90;;;23.30;50.40;;;;;;5004356;28;20506;-45
2023/09/15 02:45:23;;;;;;;3.73;3.40;;;23.30;50.60;;;;;;5004720;28;20281;-46
2023/09/15 02:47:48;;;;;;;4.60;3.57;;;23.20;50.40;;;;;;5000164;28;20186;-45
2023/09/15 02:50:14;;;;;;;3.40;3.13;;;23.20;50.50;;;;;;5009899;28;20723;-45
2023/09/15 02:52:39;;;;;;;3.57;3.33;;;23.10;50.60;;;;;;5002426;28;20229;-47
2023/09/15 02:55:06;;;;;;;4.57;4.17;;;23.10;50.70;;;;;;5013413;28;20284;-44
2023/09/15 02:57:32;;;;;;;3.90;3.50;;;23.00;51.00;;;;;;5007968;28;20260;-45
2023/09/15 02:59:57;;;;;;;4.90;3.93;;;23.00;50.60;;;;;;5012363;28;20891;-45
2023/09/15 03:02:23;;;;;;;4.60;4.27;;;22.90;50.90;;;;;;5007047;28;20260;-47
2023/09/15 03:04:49;;;;;;;3.50;3.20;;;22.80;50.80;;;;;;5006091;28;20249;-45
2023/09/15 03:07:15;;;;;;;4.27;3.80;;;22.70;51.30;;;;;;5005460;28;20198;-44
2023/09/15 03:09:41;;;;;;;3.60;3.30;;;22.70;51.70;;;;;;5009149;28;20198;-44
2023/09/15 03:12:07;;;;;;;4.00;3.60;;;22.60;51.60;;;;;;5006274;28;20488;-44
2023/09/15 03:14:33;;;;;;;3.60;3.30;;;22.60;51.70;;;;;;5006250;28;20596;-44
2023/09/15 03:16:58;;;;;;;4.00;3.60;;;22.60;52.00;;;;;;5008245;28;20194;-45
2023/09/15 03:19:24;;;;;;;4.00;3.67;;;22.60;51.70;;;;;;5004337;28;20212;-45
2023/09/15 03:21:51;;;;;;;4.87;3.20;;;22.60;51.10;;;;;;5007711;28;20295;-44
2023/09/15 03:24:18;;;;;;;4.07;3.60;;;22.50;51.50;;;;;;5002726;28;20453;-46
2023/09/15 03:26:44;;;;;;;3.70;3.40;;;22.50;51.70;;;;;;5003285;28;20453;-46
2023/09/15 03:29:09;;;;;;;3.60;3.13;;;22.40;51.70;;;;;;5005036;28;20794;-45
2023/09/15 03:31:35;;;;;;;3.70;3.40;;;22.40;51.80;;;;;;5009738;28;20206;-45
2023/09/15 03:34:00;;;;;;;4.63;4.23;;;22.40;51.80;;;;;;5000847;28;20198;-45
2023/09/15 03:36:28;;;;;;;5.90;3.67;;;22.30;52.00;;;;;;5007214;28;20189;-45
2023/09/15 03:38:53;;;;;;;3.87;3.47;;;22.30;52.00;;;;;;5008845;28;20642;-46
2023/09/15 03:41:19;;;;;;;3.07;2.77;;;22.30;52.10;;;;;;5012669;28;20451;-45
2023/09/15 03:43:45;;;;;;;3.83;3.40;;;22.30;52.60;;;;;;5004820;28;20300;-48
2023/09/15 03:46:10;;;;;;;4.40;3.00;;;22.30;52.40;;;;;;5006889;28;20269;-45
2023/09/15 03:48:36;;;;;;;4.33;3.23;;;22.30;52.10;;;;;;5014096;28;20194;-45
2023/09/15 03:51:01;;;;;;;5.67;3.63;;;22.40;52.00;;;;;;5014118;28;20194;-45
2023/09/15 03:53:27;;;;;;;3.10;2.90;;;22.40;51.80;;;;;;5013303;28;20222;-45
2023/09/15 03:55:53;;;;;;;3.80;3.50;;;22.50;51.60;;;;;;5013777;28;20273;-47
2023/09/15 03:58:18;;;;;;;5.20;3.63;;;22.40;51.30;;;;;;5011361;28;20220;-45
2023/09/15 04:00:44;;;;;;;3.20;2.87;;;22.40;51.50;;;;;;5011645;28;20201;-44
2023/09/15 04:03:09;;;;;;;3.67;3.37;;;22.40;51.80;;;;;;5011734;28;20267;-45
2023/09/15 04:05:35;;;;;;;4.03;3.30;;;22.50;51.70;;;;;;5012828;28;20209;-44
2023/09/15 04:08:01;;;;;;;3.13;2.93;;;22.50;51.80;;;;;;5011714;28;20193;-44
2023/09/15 04:10:27;;;;;;;2.90;2.70;;;22.50;51.70;;;;;;5011434;28;20805;-44
2023/09/15 04:12:52;;;;;;;5.03;4.30;;;22.50;51.40;;;;;;5013031;28;20233;-45
2023/09/15 04:15:18;;;;;;;4.00;3.60;;;22.50;50.90;;;;;;5009836;28;20189;-44
2023/09/15 04:17:44;;;;;;;3.87;3.40;;;22.50;50.90;;;;;;5010651;28;20190;-44
2023/09/15 04:20:10;;;;;;;3.47;3.17;;;22.50;50.90;;;;;;5010367;28;20186;-44
2023/09/15 04:22:40;;;;;;;4.17;3.67;;;22.50;50.70;;;;;;5012452;28;20467;-44
2023/09/15 04:25:07;;;;;;;3.53;3.20;;;22.50;50.90;;;;;;5001543;28;20953;-45
2023/09/15 04:27:34;;;;;;;4.80;3.87;;;22.40;51.20;;;;;;5003675;28;20579;-46
2023/09/15 04:30:00;;;;;;;3.37;3.07;;;22.40;50.90;;;;;;5010064;28;20444;-44
2023/09/15 04:32:26;;;;;;;5.67;3.40;;;22.40;50.80;;;;;;5012368;28;20551;-44
2023/09/15 04:34:53;;;;;;;3.90;3.50;;;22.40;51.00;;;;;;5012861;28;20433;-46
2023/09/15 04:37:22;;;;;;;4.03;3.43;;;22.40;50.90;;;;;;5011907;28;20198;-45
2023/09/15 04:39:51;;;;;;;3.60;3.30;;;22.30;51.00;;;;;;5011390;28;20445;-45
2023/09/15 04:42:17;;;;;;;4.03;3.40;;;22.30;50.90;;;;;;5012501;28;20441;-45
2023/09/15 04:44:43;;;;;;;4.10;3.80;;;22.30;51.10;;;;;;5006802;28;20433;-46
2023/09/15 04:47:11;;;;;;;4.07;3.67;;;22.30;51.20;;;;;;5004651;28;20532;-45
2023/09/15 04:49:37;;;;;;;3.70;3.40;;;22.30;51.00;;;;;;5007534;28;20869;-46
2023/09/15 04:52:03;;;;;;;4.00;3.70;;;22.30;50.80;;;;;;5003369;28;20503;-46
2023/09/15 04:54:28;;;;;;;3.27;2.97;;;22.30;51.20;;;;;;5007307;28;20551;-48
2023/09/15 04:56:54;;;;;;;4.60;4.20;;;22.20;51.10;;;;;;5009592;28;20531;-45
2023/09/15 04:59:20;;;;;;;4.07;3.77;;;22.20;51.00;;;;;;5005129;28;20338;-44
2023/09/15 05:01:46;;;;;;;4.33;3.60;;;22.20;51.20;;;;;;4999303;28;20669;-46
2023/09/15 05:04:18;;;;;;;3.27;2.97;;;22.10;51.30;;;;;;5008040;28;20233;-49
2023/09/15 05:06:45;;;;;;;3.43;3.13;;;22.20;51.40;;;;;;5004693;28;20501;-44
2023/09/15 05:09:11;;;;;;;3.43;3.13;;;22.10;51.40;;;;;;5002103;28;20534;-45
2023/09/15 05:11:37;;;;;;;5.10;2.77;;;22.20;51.50;;;;;;5004541;28;20194;-45
2023/09/15 05:14:03;;;;;;;4.00;3.30;;;22.20;52.80;;;;;;5007182;28;20444;-47
2023/09/15 05:16:30;;;;;;;3.97;3.03;;;22.20;53.10;;;;;;5009641;28;20468;-45
2023/09/15 05:18:55;;;;;;;3.40;3.10;;;22.40;53.00;;;;;;5007771;28;20444;-48
2023/09/15 05:21:21;;;;;;;9.80;3.10;;;22.50;51.90;;;;;;5001429;28;20452;-44
2023/09/15 05:23:47;;;;;;;4.20;3.17;;;22.60;51.30;;;;;;5004939;28;20202;-45
2023/09/15 05:26:12;;;;;;;6.10;3.53;;;22.60;50.60;;;;;;5005727;28;20194;-44
2023/09/15 05:28:38;;;;;;;3.50;3.20;;;22.70;49.80;;;;;;5003746;28;20639;-44
2023/09/15 05:31:04;;;;;;;3.30;3.00;;;22.70;49.70;;;;;;5001294;28;20615;-45
2023/09/15 05:33:29;;;;;;;3.90;3.60;;;22.60;50.00;;;;;;5005160;28;20218;-45
2023/09/15 05:35:58;;;;;;;5.00;3.97;;;22.60;49.50;;;;;;5007102;28;20206;-44
2023/09/15 05:38:24;;;;;;;5.43;3.90;;;22.60;49.70;;;;;;5006179;28;20200;-44
2023/09/15 05:40:50;;;;;;;5.80;3.40;;;22.60;50.20;;;;;;5003617;28;20932;-44
2023/09/15 05:43:20;;;;;;;5.70;3.40;;;22.60;49.70;;;;;;4993035;28;20537;-44
2023/09/15 05:45:47;;;;;;;4.40;4.00;;;22.60;49.60;;;;;;5003094;28;20460;-46
2023/09/15 05:48:22;;;;;;;3.83;3.53;;;22.60;49.80;;;;;;5002299;28;20445;-47
2023/09/15 05:50:49;;;;;;;10.87;4.10;;;22.60;50.00;;;;;;5008489;28;21102;-44
2023/09/15 05:53:14;;;;;;;5.10;4.03;;;22.60;50.20;;;;;;5011554;28;20481;-46
2023/09/15 05:55:40;;;;;;;3.80;2.73;;;22.50;50.50;;;;;;5009462;28;20451;-44
2023/09/15 05:58:05;;;;;;;4.10;3.70;;;22.50;50.60;;;;;;5007315;28;20226;-44
2023/09/15 06:00:31;;;;;;;4.00;3.70;;;22.40;49.50;;;;;;5007311;28;20646;-44
2023/09/15 06:02:56;;;;;;;5.23;4.73;;;22.40;50.60;;;;;;5009739;28;20230;-44
2023/09/15 06:05:25;;;;;;;4.23;3.20;;;22.40;50.90;;;;;;5010665;28;20221;-44
2023/09/15 06:07:51;;;;;;;4.63;3.30;;;22.50;50.90;;;;;;5010967;28;20272;-45
2023/09/15 06:10:16;;;;;;;5.50;3.67;;;22.60;50.90;;;;;;5012464;28;20984;-44
2023/09/15 06:12:43;;;;;;;5.70;4.57;;;22.60;50.80;;;;;;5011995;28;20569;-46
2023/09/15 06:15:09;;;;;;;6.50;4.10;;;22.70;50.60;;;;;;5008406;28;20190;-45
2023/09/15 06:17:35;;;;;;;4.13;3.73;;;22.80;50.60;;;;;;5009938;28;20459;-47
2023/09/15 06:20:01;;;;;;;3.37;3.00;;;22.90;50.00;;;;;;5012863;28;20421;-44
2023/09/15 06:22:27;;;;;;;5.80;4.10;;;23.00;50.20;;;;;;5015814;28;20198;-44
2023/09/15 06:24:52;;;;;;;4.97;3.80;;;23.10;49.90;;;;;;5015667;28;20644;-45
2023/09/15 06:27:18;;;;;;;4.40;4.00;;;23.00;49.60;;;;;;5014764;28;20186;-45
2023/09/15 06:29:44;;;;;;;3.50;3.20;;;23.00;49.70;;;;;;5014311;28;20221;-44
2023/09/15 06:32:10;;;;;;;3.60;3.30;;;22.70;50.20;;;;;;5014452;28;20256;-44
2023/09/15 06:34:35;;;;;;;10.20;5.07;;;22.80;51.00;;;;;;5014215;28;20202;-48
2023/09/15 06:37:01;;;;;;;6.77;3.97;;;23.00;50.80;;;;;;5015330;28;20670;-44
2023/09/15 06:39:28;;;;;;;11.23;5.10;;;23.20;50.50;;;;;;5013860;28;20565;-49
2023/09/15 06:41:54;;;;;;;17.30;5.20;;;23.30;50.10;;;;;;5012589;28;20440;-45
2023/09/15 06:44:19;;;;;;;4.90;3.90;;;23.50;49.90;;;;;;5003989;28;20445;-47
2023/09/15 06:46:45;;;;;;;4.17;3.77;;;23.60;50.00;;;;;;5009673;28;20256;-48
2023/09/15 06:49:12;;;;;;;6.80;3.23;;;23.70;49.80;;;;;;5014531;28;20197;-49
2023/09/15 06:51:37;;;;;;;3.83;3.53;;;23.90;49.60;;;;;;5015060;28;20226;-47
2023/09/15 06:54:03;;;;;;;5.33;3.73;;;24.00;49.50;;;;;;5013315;28;20468;-45
2023/09/15 06:56:29;;;;;;;4.30;3.90;;;24.20;49.40;;;;;;5013171;28;20645;-47
2023/09/15 06:58:54;;;;;;;4.20;3.80;;;24.30;49.30;;;;;;5011203;28;20232;-47
2023/09/15 07:01:20;;;;;;;4.43;4.03;;;24.40;49.20;;;;;;5010406;28;20205;-49
2023/09/15 07:03:45;;;;;;;5.90;4.33;;;24.50;49.00;;;;;;5002973;28;20234;-49
2023/09/15 07:06:13;;;;;;;4.90;4.10;;;24.70;48.90;;;;;;5010237;28;20205;-49
2023/09/15 07:08:39;;;;;;;9.63;3.90;;;24.80;48.50;;;;;;5006970;28;20221;-45
2023/09/15 07:11:04;;;;;;;4.27;3.90;;;24.90;48.90;;;;;;5013110;28;20479;-48
2023/09/15 07:13:30;;;;;;;5.33;3.87;;;25.10;48.30;;;;;;5012239;28;20584;-45
2023/09/15 07:15:56;;;;;;;4.50;4.10;;;25.20;48.10;;;;;;5009139;28;20216;-46
2023/09/15 07:18:21;;;;;;;4.20;3.70;;;25.30;47.90;;;;;;5004773;28;20688;-49
2023/09/15 07:20:47;;;;;;;5.27;4.77;;;25.40;47.60;;;;;;5003774;28;20572;-48
2023/09/15 07:23:12;;;;;;;5.17;4.77;;;25.60;47.50;;;;;;5009070;28;20194;-48
2023/09/15 07:25:38;;;;;;;4.83;4.33;;;25.70;47.90;;;;;;5011556;28;20224;-44
2023/09/15 07:28:04;;;;;;;5.43;4.33;;;25.80;47.20;;;;;;5008393;28;20198;-49
2023/09/15 07:30:30;;;;;;;4.60;4.20;;;25.90;47.00;;;;;;5007731;28;20198;-49
2023/09/15 07:32:56;;;;;;;4.87;4.33;;;25.90;47.00;;;;;;5009573;28;20491;-48
2023/09/15 07:35:22;;;;;;;4.70;4.27;;;26.10;46.80;;;;;;5007749;28;20457;-48
2023/09/15 07:37:48;;;;;;;4.27;3.97;;;26.10;46.50;;;;;;5006402;28;20202;-50
2023/09/15 07:40:14;;;;;;;6.77;5.30;;;26.10;46.70;;;;;;5004976;28;20441;-49
2023/09/15 07:42:40;;;;;;;6.00;5.10;;;26.10;46.40;;;;;;5004542;28;20438;-45
2023/09/15 07:45:06;;;;;;;5.90;5.30;;;26.10;46.70;;;;;;5004145;28;20206;-46
2023/09/15 07:47:33;;;;;;;5.43;4.90;;;26.10;46.70;;;;;;4998429;28;20198;-46
2023/09/15 07:49:58;;;;;;;6.70;5.20;;;26.10;46.70;;;;;;5004473;28;20917;-44
2023/09/15 07:52:26;;;;;;;9.53;4.63;;;26.20;46.90;;;;;;5003742;28;20623;-45
2023/09/15 07:54:52;;;;;;;7.50;4.80;;;26.20;46.70;;;;;;5001001;28;20197;-45
2023/09/15 07:57:17;;;;;;;5.23;4.73;;;26.20;46.70;;;;;;5007148;28;20444;-45
2023/09/15 07:59:43;;;;;;;6.40;4.87;;;26.30;46.80;;;;;;5007798;28;20224;-44
2023/09/15 08:02:08;;;;;;;5.33;4.50;;;26.40;46.80;;;;;;5001423;28;20245;-46
2023/09/15 08:04:34;;;;;;;5.67;5.10;;;26.40;46.90;;;;;;4997051;28;20229;-47
2023/09/15 08:06:59;;;;;;;6.07;4.60;;;26.40;47.10;;;;;;4994663;28;20413;-45
2023/09/15 08:09:25;;;;;;;4.93;4.53;;;26.50;47.40;;;;;;5001152;28;20199;-42
2023/09/15 08:11:50;;;;;;;6.13;4.30;;;26.50;46.80;;;;;;5000093;28;20217;-44
2023/09/15 08:14:16;;;;;;;4.73;4.43;;;26.60;46.60;;;;;;5006784;28;20644;-42
2023/09/15 08:16:42;;;;;;;5.23;3.80;;;26.60;46.90;;;;;;5003397;28;20556;-42
2023/09/15 08:19:08;;;;;;;6.13;4.33;;;26.60;46.80;;;;;;5005641;28;20201;-46
2023/09/15 08:21:33;;;;;;;5.37;4.00;;;26.60;46.90;;;;;;4994898;28;20615;-43
2023/09/15 08:23:59;;;;;;;4.27;3.93;;;26.60;47.00;;;;;;5009240;28;20474;-43
2023/09/15 08:26:25;;;;;;;4.60;4.00;;;26.70;47.30;;;;;;5012842;28;20186;-46
2023/09/15 08:28:51;;;;;;;4.57;3.73;;;26.70;47.50;;;;;;5011955;28;20211;-42
2023/09/15 08:31:17;;;;;;;3.80;3.50;;;26.70;47.40;;;;;;5006795;28;20437;-44
2023/09/15 08:33:42;;;;;;;5.40;3.73;;;26.70;47.50;;;;;;5001068;28;20229;-42
2023/09/15 08:36:08;;;;;;;4.47;4.10;;;26.70;47.50;;;;;;5007646;28;20202;-43
2023/09/15 08:38:34;;;;;;;4.07;3.67;;;26.80;47.50;;;;;;5007904;28;20326;-43
2023/09/15 08:41:07;;;;;;;4.57;4.17;;;26.80;47.50;;;;;;5007815;28;20202;-45
2023/09/15 08:43:33;;;;;;;4.53;4.20;;;26.80;47.60;;;;;;5010334;28;20197;-43
2023/09/15 08:46:02;;;;;;;5.93;4.00;;;26.80;47.60;;;;;;5000101;28;20592;-44
2023/09/15 08:48:32;;;;;;;4.63;4.10;;;26.90;47.80;;;;;;5010318;28;20958;-43
2023/09/15 08:50:58;;;;;;;5.23;4.63;;;26.90;47.70;;;;;;5010682;28;20472;-44
2023/09/15 08:53:24;;;;;;;4.07;3.77;;;27.00;47.80;;;;;;5006476;28;20484;-43
2023/09/15 08:55:50;;;;;;;4.40;3.90;;;27.00;47.60;;;;;;5000675;28;20433;-46
2023/09/15 08:58:17;;;;;;;3.60;3.30;;;27.10;47.60;;;;;;5002404;28;20194;-45
2023/09/15 09:00:42;;;;;;;4.73;4.13;;;27.10;47.60;;;;;;5006822;28;20456;-43
2023/09/15 09:03:12;;;;;;;4.83;4.33;;;27.20;47.60;;;;;;5006017;28;20472;-43
2023/09/15 09:05:38;;;;;;;4.63;4.20;;;27.20;47.80;;;;;;5005044;28;20212;-47
2023/09/15 09:08:05;;;;;;;4.33;3.93;;;27.30;47.60;;;;;;5009444;28;20437;-43
2023/09/15 09:10:30;;;;;;;4.97;4.57;;;27.40;47.70;;;;;;5007621;28;21015;-46
2023/09/15 09:12:56;;;;;;;5.27;4.77;;;27.50;47.90;;;;;;5003797;28;20488;-43
2023/09/15 09:15:22;;;;;;;6.30;5.00;;;27.60;47.80;;;;;;5002830;28;20191;-44
2023/09/15 09:17:48;;;;;;;4.77;4.37;;;27.70;48.00;;;;;;5010903;28;20551;-43
2023/09/15 09:20:26;;;;;;;7.33;5.37;;;27.80;48.10;;;;;;5006551;28;20447;-43
2023/09/15 09:22:52;;;;;;;8.10;5.57;;;27.90;47.40;;;;;;5003590;28;20195;-43
2023/09/15 09:25:29;;;;;;;6.63;5.00;;;27.90;46.90;;;;;;5011185;28;20471;-48
2023/09/15 09:27:55;;;;;;;5.00;4.50;;;27.90;47.20;;;;;;5009616;28;20476;-47
2023/09/15 09:30:24;;;;;;;5.27;4.80;;;27.90;47.50;;;;;;5011159;28;20469;-45
2023/09/15 09:32:50;;;;;;;5.67;5.17;;;28.10;47.30;;;;;;5008710;28;20230;-47
2023/09/15 09:35:16;;;;;;;4.40;4.00;;;28.20;47.10;;;;;;5004255;28;20475;-43
2023/09/15 09:37:42;;;;;;;5.00;4.53;;;28.30;47.20;;;;;;5011210;28;20437;-43
2023/09/15 09:40:08;;;;;;;5.30;4.60;;;28.30;47.20;;;;;;5011198;28;20707;-47
2023/09/15 09:42:34;;;;;;;5.93;5.37;;;28.40;47.20;;;;;;5011565;28;20538;-44
2023/09/15 09:45:00;;;;;;;7.13;6.10;;;28.40;46.80;;;;;;5006257;28;20443;-43
2023/09/15 09:47:26;;;;;;;6.37;5.67;;;28.50;46.60;;;;;;5009997;28;20599;-47
2023/09/15 09:49:52;;;;;;;6.33;5.73;;;28.40;46.60;;;;;;5004223;28;20449;-43
2023/09/15 09:52:17;;;;;;;5.10;4.60;;;28.30;47.10;;;;;;5005919;28;20665;-44
2023/09/15 09:54:44;;;;;;;5.83;5.27;;;28.30;47.40;;;;;;5010115;28;20248;-50
2023/09/15 09:57:09;;;;;;;5.70;5.20;;;28.40;47.10;;;;;;5005866;28;20197;-49
2023/09/15 09:59:38;;;;;;;6.37;5.63;;;28.50;46.90;;;;;;5008962;28;21712;-43
2023/09/15 10:02:04;;;;;;;7.07;5.37;;;28.60;46.90;;;;;;5006795;28;20238;-47
2023/09/15 10:04:29;;;;;;;5.37;4.93;;;28.60;46.80;;;;;;5014136;28;20444;-44
2023/09/15 10:06:56;;;;;;;4.67;4.27;;;28.80;46.90;;;;;;5016190;28;20439;-45
2023/09/15 10:09:22;;;;;;;6.73;4.10;;;28.90;47.10;;;;;;5006212;28;20201;-44
2023/09/15 10:11:48;;;;;;;5.90;4.40;;;29.10;46.40;;;;;;5012092;28;20449;-44
2023/09/15 10:14:14;;;;;;;5.63;4.97;;;29.20;46.30;;;;;;5014357;28;20582;-45
2023/09/15 10:16:40;;;;;;;5.27;4.83;;;29.40;45.80;;;;;;5013643;28;20547;-44
2023/09/15 10:19:07;;;;;;;5.40;4.60;;;29.60;46.00;;;;;;5012052;28;20205;-44
2023/09/15 10:21:34;;;;;;;6.83;4.90;;;29.80;45.70;;;;;;5012888;28;20224;-50
2023/09/15 10:24:06;;;;;;;6.60;5.03;;;30.00;45.30;;;;;;5013206;28;20452;-46
2023/09/15 10:26:32;;;;;;;7.40;5.37;;;30.20;44.20;;;;;;5013651;28;20441;-44
2023/09/15 10:28:59;;;;;;;4.90;4.40;;;30.40;45.20;;;;;;5012073;28;20919;-44
2023/09/15 10:31:24;;;;;;;5.43;5.00;;;30.50;44.00;;;;;;5013211;28;20473;-44
2023/09/15 10:33:50;;;;;;;5.77;5.23;;;30.60;43.60;;;;;;5007408;28;20520;-44
2023/09/15 10:36:16;;;;;;;5.30;4.70;;;30.70;43.50;;;;;;5013372;28;20190;-45
2023/09/15 10:38:45;;;;;;;7.10;5.00;;;30.80;43.30;;;;;;5012108;28;20547;-47
2023/09/15 10:41:11;;;;;;;5.17;4.10;;;30.80;42.90;;;;;;5012709;28;20583;-44
2023/09/15 10:43:49;;;;;;;5.60;5.20;;;30.90;43.50;;;;;;5012266;28;20528;-46
2023/09/15 10:46:15;;;;;;;6.37;4.70;;;30.90;42.70;;;;;;5006292;28;20441;-44
2023/09/15 10:48:44;;;;;;;5.53;5.03;;;31.00;42.80;;;;;;5003238;28;20428;-44
2023/09/15 10:51:10;;;;;;;5.87;5.37;;;30.90;43.10;;;;;;5010588;28;20668;-46
2023/09/15 10:53:45;;;;;;;4.80;4.47;;;31.00;42.70;;;;;;5010553;28;20890;-43
2023/09/15 10:56:13;;;;;;;4.43;4.10;;;31.30;42.60;;;;;;5008418;28;20939;-44
2023/09/15 10:58:39;;;;;;;4.60;4.30;;;31.60;42.30;;;;;;5009365;28;20440;-46
2023/09/15 11:01:06;;;;;;;4.90;4.50;;;31.70;42.10;;;;;;5001451;28;20462;-45
2023/09/15 11:03:33;;;;;;;4.93;4.53;;;31.90;40.90;;;;;;5005026;28;20476;-44
2023/09/15 11:05:59;;;;;;;5.13;4.60;;;31.90;38.50;;;;;;5005293;28;20483;-46
2023/09/15 11:08:26;;;;;;;5.13;4.67;;;31.70;38.60;;;;;;5005500;28;20519;-44
2023/09/15 11:11:07;;;;;;;4.63;4.33;;;31.70;38.60;;;;;;5011731;28;20186;-49
2023/09/15 11:13:33;;;;;;;5.00;4.53;;;32.10;38.10;;;;;;5012136;28;20503;-45
2023/09/15 11:15:59;;;;;;;4.00;3.70;;;32.50;38.90;;;;;;5008497;28;20803;-45
2023/09/15 11:18:26;;;;;;;4.13;3.73;;;32.40;36.60;;;;;;5011035;28;20445;-44
2023/09/15 11:20:51;;;;;;;6.53;4.30;;;32.30;38.00;;;;;;5008908;28;20540;-44
2023/09/15 11:23:17;;;;;;;5.07;4.67;;;32.40;37.30;;;;;;5005969;28;20559;-44
2023/09/15 11:25:43;;;;;;;4.60;4.30;;;32.50;37.60;;;;;;5007850;28;20560;-44
2023/09/15 11:28:16;;;;;;;4.93;4.60;;;32.80;37.20;;;;;;5006970;28;20197;-44
2023/09/15 11:30:42;;;;;;;4.10;3.80;;;32.90;36.70;;;;;;5006692;28;20460;-46
2023/09/15 11:33:08;;;;;;;4.50;4.20;;;32.80;36.50;;;;;;5009316;28;20492;-46
2023/09/15 11:35:34;;;;;;;5.47;4.03;;;32.60;35.80;;;;;;5004668;28;20461;-46
2023/09/15 11:38:03;;;;;;;5.03;4.40;;;32.40;36.60;;;;;;5013567;28;20441;-45
2023/09/15 11:40:28;;;;;;;4.63;4.23;;;32.50;36.90;;;;;;5012228;28;20458;-47
2023/09/15 11:43:01;;;;;;;5.13;4.73;;;32.80;36.40;;;;;;5010227;28;20444;-45
2023/09/15 11:45:30;;;;;;;5.13;4.33;;;32.90;35.60;;;;;;5006147;28;20193;-48
2023/09/15 11:47:58;;;;;;;4.47;4.07;;;32.60;36.20;;;;;;5010148;28;20462;-46
2023/09/15 11:50:25;;;;;;;4.90;4.50;;;33.00;35.80;;;;;;5012297;28;20532;-47
2023/09/15 11:52:52;;;;;;;4.23;3.93;;;32.80;35.60;;;;;;5006376;28;20484;-46
2023/09/15 11:55:20;;;;;;;5.40;4.70;;;33.00;36.00;;;;;;5004832;28;20519;-46
2023/09/15 11:57:46;;;;;;;4.13;3.83;;;33.40;34.90;;;;;;4997860;28;20459;-44
2023/09/15 12:00:16;;;;;;;4.77;4.37;;;33.50;34.60;;;;;;5008436;28;20818;-47
2023/09/15 12:02:46;;;;;;;5.17;4.77;;;33.70;34.60;;;;;;5007373;28;20503;-44
2023/09/15 12:05:16;;;;;;;4.50;4.20;;;34.00;35.20;;;;;;5010841;28;20460;-43
2023/09/15 12:07:43;;;;;;;5.70;5.20;;;34.30;34.60;;;;;;5011289;28;20981;-45
2023/09/15 12:10:12;;;;;;;4.57;4.17;;;34.50;34.20;;;;;;5007363;28;20453;-54
2023/09/15 12:12:38;;;;;;;3.87;3.67;;;34.70;32.80;;;;;;5011688;28;21099;-46
2023/09/15 12:15:06;;;;;;;4.03;3.73;;;34.10;32.20;;;;;;5011195;28;20437;-45
2023/09/15 12:17:33;;;;;;;3.87;3.67;;;34.10;32.10;;;;;;5007419;28;20194;-46
2023/09/15 12:20:05;;;;;;;4.07;3.83;;;34.30;32.20;;;;;;5011463;28;20477;-44
2023/09/15 12:22:32;;;;;;;4.43;4.13;;;33.80;31.10;;;;;;5007620;28;20432;-45
2023/09/15 12:24:59;;;;;;;4.53;4.23;;;33.70;31.30;;;;;;5000168;28;20452;-46
2023/09/15 12:27:28;;;;;;;4.60;4.30;;;33.50;31.30;;;;;;4997626;28;20437;-47
2023/09/15 12:29:55;;;;;;;4.07;3.77;;;33.60;31.90;;;;;;5005540;28;20452;-45
2023/09/15 12:32:26;;;;;;;4.70;4.40;;;33.40;32.20;;;;;;5008811;28;20860;-45
2023/09/15 12:34:55;;;;;;;4.73;4.33;;;33.60;32.40;;;;;;5005444;28;20986;-45
2023/09/15 12:37:21;;;;;;;6.07;4.60;;;33.80;31.30;;;;;;5010431;28;20962;-47
2023/09/15 12:39:46;;;;;;;3.83;3.43;;;33.90;32.40;;;;;;5005501;28;20449;-44
2023/09/15 12:42:13;;;;;;;4.43;4.03;;;33.70;32.00;;;;;;5010274;28;20211;-45
2023/09/15 12:44:38;;;;;;;5.03;4.53;;;33.90;31.90;;;;;;5009671;28;20259;-48